Data for 03/02/2014

Time Sea-Level Adjusted Pressure Absolute Pressure Temperature Relative Humidity Dew Point   
(mb) (inHg) (mb) (inHg) (C) (F) (%) (C) (F)
00:05 1017 30.03 846 24.98 -24.8 -12.6 62 -30 -22
00:10 1017 30.03 846 24.98 -24.8 -12.6 62 -30.1 -22.1
00:15 1016 30 846 24.98 -24.8 -12.6 62 -30 -22.1
00:20 1016 30 846 24.98 -24.8 -12.6 62 -30.1 -22.1
00:25 1016 30 846 24.98 -24.8 -12.6 63 -29.9 -21.9
00:30 1016 30 845 24.95 -24.7 -12.5 63 -29.8 -21.7
00:35 1016 30 845 24.95 -24.7 -12.4 63 -29.9 -21.8
00:40 1016 30 845 24.95 -24.7 -12.4 62 -29.9 -21.9
00:45 1016 30 845 24.95 -24.6 -12.2 62 -29.8 -21.7
00:50 1016 30 845 24.95 -24.5 -12.1 62 -29.8 -21.6
00:55 1016 30 845 24.95 -24.4 -11.9 62 -29.8 -21.6
01:00 1016 30 845 24.95 -24.3 -11.7 62 -29.6 -21.3
01:05 1016 30 845 24.95 -24.3 -11.7 62 -29.6 -21.2
01:10 1016 30 845 24.95 -24.2 -11.6 62 -29.5 -21.1
01:15 1016 30 845 24.95 -24.1 -11.4 62 -29.5 -21.1
01:20 1016 30 845 24.95 -24.1 -11.3 61 -29.5 -21.1
01:25 1016 30 845 24.95 -24.1 -11.3 62 -29.5 -21.1
01:30 1016 30 845 24.95 -24 -11.2 62 -29.5 -21
01:35 1015 29.97 845 24.95 -24 -11.2 62 -29.4 -21
01:40 1015 29.97 845 24.95 -23.9 -11.1 61 -29.4 -20.9
01:45 1015 29.97 844 24.92 -23.9 -11 62 -29.3 -20.7
01:50 1015 29.97 844 24.92 -23.8 -10.8 63 -29.1 -20.3
01:55 1015 29.97 844 24.92 -23.7 -10.7 62 -29.1 -20.3
02:00 1015 29.97 844 24.92 -23.6 -10.5 62 -29 -20.2
02:05 1015 29.97 844 24.92 -23.6 -10.5 62 -29 -20.3
02:10 1015 29.97 844 24.92 -23.6 -10.4 61 -29.2 -20.5
02:15 1015 29.97 844 24.92 -23.7 -10.6 62 -29.1 -20.4
02:20 1015 29.97 844 24.92 -23.7 -10.6 62 -29.1 -20.4
02:25 1015 29.97 844 24.92 -23.6 -10.5 62 -29 -20.3
02:30 1015 29.97 844 24.92 -23.4 -10.2 61 -29 -20.2
02:35 1015 29.97 844 24.92 -23.4 -10.2 61 -28.9 -20.1
02:40 1015 29.97 844 24.92 -23.5 -10.3 62 -28.8 -19.9
02:45 1015 29.97 844 24.92 -23.5 -10.3 62 -28.8 -19.8
02:50 1015 29.97 844 24.92 -23.4 -10.1 63 -28.7 -19.6
02:55 1015 29.97 844 24.92 -23.2 -9.7 62 -28.5 -19.3
03:00 1015 29.97 845 24.95 -22.9 -9.1 62 -28.2 -18.8
03:05 1016 30 845 24.95 -22.8 -9 62 -28.2 -18.8
03:10 1016 30 845 24.95 -22.7 -8.8 63 -27.9 -18.2
03:15 1016 30 845 24.95 -22.5 -8.4 63 -27.8 -18
03:20 1016 30 845 24.95 -22.4 -8.2 63 -27.5 -17.6
03:25 1016 30 845 24.95 -22.3 -8.1 65 -27.2 -17
03:30 1016 30 845 24.95 -22.2 -7.9 65 -27.1 -16.8
03:35 1016 30 845 24.95 -22.2 -7.9 65 -27.1 -16.7
03:40 1015 29.97 845 24.95 -22.2 -7.9 65 -27.1 -16.8
03:45 1015 29.97 845 24.95 -22.2 -8 66 -27 -16.5
03:50 1015 29.97 845 24.95 -22.3 -8.1 67 -26.9 -16.4
03:55 1015 29.97 845 24.95 -22.2 -7.9 68 -26.6 -15.9
04:00 1015 29.97 845 24.95 -22.2 -7.9 66 -26.9 -16.5
04:05 1015 29.97 844 24.92 -22.2 -7.9 67 -26.7 -16
04:10 1015 29.97 845 24.95 -22.1 -7.7 68 -26.5 -15.7
04:15 1016 30 845 24.95 -22.1 -7.8 68 -26.5 -15.7
04:20 1015 29.97 845 24.95 -22.1 -7.8 66 -26.8 -16.3
04:25 1015 29.97 845 24.95 -22.1 -7.8 66 -26.8 -16.3
04:30 1015 29.97 844 24.92 -22.2 -7.9 64 -27.2 -17
04:35 1015 29.97 844 24.92 -22.4 -8.3 65 -27.2 -17
04:40 1015 29.97 844 24.92 -22.4 -8.2 65 -27.2 -17
04:45 1015 29.97 844 24.92 -22.3 -8.2 66 -27.1 -16.7
04:50 1015 29.97 844 24.92 -22.3 -8.2 67 -26.9 -16.5
04:55 1015 29.97 844 24.92 -22.3 -8.1 66 -27.1 -16.7
05:00 1015 29.97 844 24.92 -22.3 -8.1 65 -27.1 -16.8
05:05 1015 29.97 844 24.92 -22.2 -8 65 -27.1 -16.8
05:10 1015 29.97 845 24.95 -22.4 -8.2 65 -27.3 -17.1
05:15 1016 30 845 24.95 -22.4 -8.3 65 -27.3 -17.1
05:20 1016 30 845 24.95 -22.3 -8.2 65 -27.3 -17.1
05:25 1015 29.97 845 24.95 -22.4 -8.3 66 -27.2 -17
05:30 1015 29.97 844 24.92 -22.4 -8.3 67 -27 -16.5
05:35 1015 29.97 844 24.92 -22.4 -8.2 66 -27.1 -16.7
05:40 1015 29.97 845 24.95 -22.3 -8.1 67 -26.9 -16.4
05:45 1015 29.97 845 24.95 -22.2 -8 66 -26.9 -16.4
05:50 1015 29.97 845 24.95 -22.3 -8.1 64 -27.3 -17.1
05:55 1015 29.97 845 24.95 -22.2 -7.9 66 -26.9 -16.5
06:00 1016 30 845 24.95 -22.3 -8.1 66 -27 -16.6
06:05 1016 30 845 24.95 -22.4 -8.3 67 -27 -16.6
06:10 1016 30 845 24.95 -22.4 -8.3 66 -27 -16.7
06:15 1016 30 845 24.95 -22.3 -8.2 67 -27 -16.5
06:20 1016 30 845 24.95 -22.2 -8 67 -26.8 -16.2
06:25 1015 29.97 845 24.95 -22 -7.7 67 -26.6 -15.8
06:30 1015 29.97 845 24.95 -21.9 -7.4 67 -26.5 -15.7
06:35 1015 29.97 845 24.95 -21.9 -7.4 67 -26.5 -15.6
06:40 1015 29.97 844 24.92 -21.8 -7.3 65 -26.7 -16.1
06:45 1015 29.97 845 24.95 -21.9 -7.4 68 -26.3 -15.3
06:50 1015 29.97 845 24.95 -21.8 -7.3 67 -26.5 -15.7
06:55 1015 29.97 844 24.92 -21.8 -7.2 67 -26.4 -15.5
07:00 1015 29.97 844 24.92 -21.7 -7.1 66 -26.5 -15.7
07:05 1015 29.97 844 24.92 -21.7 -7.1 67 -26.3 -15.3
07:10 1015 29.97 844 24.92 -21.7 -7 66 -26.4 -15.5
07:15 1015 29.97 844 24.92 -21.7 -7 66 -26.5 -15.7
07:20 1015 29.97 844 24.92 -21.7 -7.1 66 -26.5 -15.6
07:25 1015 29.97 844 24.92 -21.8 -7.2 67 -26.4 -15.5
07:30 1015 29.97 844 24.92 -21.8 -7.2 67 -26.4 -15.5
07:35 1015 29.97 844 24.92 -21.7 -7.1 67 -26.2 -15.2
07:40 1015 29.97 844 24.92 -21.5 -6.8 67 -26 -14.9
07:45 1015 29.97 845 24.95 -21.5 -6.6 67 -26.1 -14.9
07:50 1016 30 845 24.95 -21.4 -6.5 66 -26.1 -14.9
07:55 1016 30 845 24.95 -21.4 -6.4 67 -26 -14.8
08:00 1015 29.97 845 24.95 -21.4 -6.5 68 -25.8 -14.4
08:05 1016 30 845 24.95 -21.4 -6.5 66 -26.1 -15.1
08:10 1015 29.97 845 24.95 -21.4 -6.6 67 -26 -14.7
08:15 1015 29.97 845 24.95 -21.3 -6.4 67 -26 -14.7
08:20 1015 29.97 845 24.95 -21.3 -6.3 66 -25.9 -14.7
08:25 1015 29.97 844 24.92 -21.2 -6.1 67 -25.9 -14.5
08:30 1015 29.97 844 24.92 -21.1 -6 65 -26 -14.8
08:35 1015 29.97 844 24.92 -21.2 -6.2 65 -26.2 -15.1
08:40 1015 29.97 844 24.92 -21.3 -6.3 67 -25.9 -14.6
08:45 1015 29.97 844 24.92 -21.2 -6.2 66 -26 -14.8
08:50 1015 29.97 844 24.92 -21.1 -6 66 -26 -14.7
08:55 1015 29.97 844 24.92 -21 -5.7 66 -25.7 -14.3
09:00 1015 29.97 844 24.92 -20.4 -4.8 63 -25.8 -14.4
09:05 1015 29.97 844 24.92 -20.2 -4.3 63 -25.5 -13.8
09:10 1015 29.97 844 24.92 -19.6 -3.4 60 -25.6 -14
09:15 1015 29.97 844 24.92 -19.6 -3.2 61 -25.3 -13.5
09:20 1015 29.97 844 24.92 -19.1 -2.3 61 -24.9 -12.8
09:25 1015 29.97 844 24.92 -19 -2.3 60 -24.9 -12.8
09:30 1015 29.97 844 24.92 -18.9 -2 60 -24.8 -12.7
09:35 1015 29.97 844 24.92 -18.6 -1.4 58 -24.8 -12.7
09:40 1015 29.97 845 24.95 -18.9 -2 61 -24.7 -12.5
09:45 1016 30 845 24.95 -18.9 -1.9 61 -24.6 -12.3
09:50 1016 30 845 24.95 -19 -2.2 62 -24.6 -12.3
09:55 1015 29.97 845 24.95 -18.8 -1.8 63 -24.1 -11.4
10:00 1015 29.97 845 24.95 -18.5 -1.3 61 -24.4 -11.8
10:05 1015 29.97 845 24.95 -18.5 -1.2 61 -24.3 -11.7
10:10 1015 29.97 845 24.95 -18.5 -1.2 62 -24 -11.3
10:15 1016 30 845 24.95 -18.2 -0.7 61 -24 -11.3
10:20 1016 30 845 24.95 -18.1 -0.6 59 -24.3 -11.7
10:25 1016 30 845 24.95 -18 -0.3 60 -24 -11.2
10:30 1016 30 845 24.95 -17.7 0.2 60 -23.7 -10.7
10:35 1016 30 845 24.95 -17.9 -0.1 59 -24.1 -11.3
10:40 1016 30 845 24.95 -17.9 -0.3 59 -24.1 -11.3
10:45 1016 30 845 24.95 -18.1 -0.5 60 -24.1 -11.4
10:50 1016 30 845 24.95 -17.2 1 57 -23.9 -10.9
10:55 1016 30 845 24.95 -16.9 1.6 58 -23.4 -10.1
11:00 1016 30 845 24.95 -17 1.5 56 -23.7 -10.7
11:05 1016 30 845 24.95 -16.8 1.8 57 -23.4 -10.1
11:10 1016 30 845 24.95 -15.8 3.6 53 -23.2 -9.8
11:15 1016 30 845 24.95 -15.4 4.2 52 -23.2 -9.8
11:20 1016 30 845 24.95 -15.9 3.5 57 -22.6 -8.7
11:25 1016 30 845 24.95 -16 3.1 58 -22.6 -8.7
11:30 1016 30 845 24.95 -15.9 3.4 57 -22.6 -8.7
11:35 1016 30 845 24.95 -16.5 2.3 54 -23.7 -10.6
11:40 1016 30 845 24.95 -16.1 3.1 54 -23.3 -9.9
11:45 1015 29.97 845 24.95 -15.1 4.7 51 -23.2 -9.8
11:50 1015 29.97 845 24.95 -15.1 4.9 50 -23.3 -10
11:55 1015 29.97 845 24.95 -14.9 5.2 48 -23.5 -10.4
12:00 1015 29.97 845 24.95 -14.3 6.3 50 -22.6 -8.7
12:05 1016 30 845 24.95 -13.3 8.1 49 -22 -7.6
12:10 1015 29.97 845 24.95 -12.8 8.9 47 -22 -7.6
12:15 1015 29.97 844 24.92 -12.3 9.8 47 -21.5 -6.6
12:20 1015 29.97 845 24.95 -12 10.4 45 -21.8 -7.2
12:25 1015 29.97 844 24.92 -12.2 10.1 49 -20.8 -5.5
12:30 1015 29.97 844 24.92 -12.9 8.8 52 -20.8 -5.4
12:35 1015 29.97 844 24.92 -12.6 9.3 49 -21.2 -6.1
12:40 1015 29.97 844 24.92 -12.5 9.6 49 -21 -5.8
12:45 1015 29.97 844 24.92 -12.3 9.8 48 -21.2 -6.2
12:50 1014 29.94 844 24.92 -12.4 9.7 48 -21.3 -6.3
12:55 1014 29.94 843 24.89 -11.8 10.9 53 -19.4 -3
13:00 1014 29.94 844 24.92 -10.6 12.8 51 -19 -2.2
13:05 1014 29.94 844 24.92 -10 13.9 48 -19.2 -2.5
13:10 1014 29.94 843 24.89 -10.2 13.6 47 -19.4 -3
13:15 1014 29.94 843 24.89 -10.8 12.5 47 -20.1 -4.2
13:20 1014 29.94 843 24.89 -11.3 11.7 48 -20.2 -4.3
13:25 1014 29.94 843 24.89 -11.3 11.6 51 -19.5 -3.1
13:30 1014 29.94 843 24.89 -11.2 11.8 51 -19.5 -3
13:35 1014 29.94 844 24.92 -11.3 11.7 48 -20.2 -4.3
13:40 1014 29.94 844 24.92 -11.5 11.4 47 -20.6 -5
13:45 1014 29.94 844 24.92 -11 12.2 46 -20.4 -4.8
13:50 1014 29.94 844 24.92 -10.3 13.6 44 -20.4 -4.6
13:55 1014 29.94 844 24.92 -11.2 11.8 48 -20.2 -4.4
14:00 1015 29.97 844 24.92 -11.6 11.1 51 -19.9 -3.8
14:05 1014 29.94 844 24.92 -11.6 11.1 51 -19.9 -3.8
14:10 1014 29.94 844 24.92 -11.7 11 52 -19.7 -3.5
14:15 1014 29.94 844 24.92 -10.6 12.9 46 -20.2 -4.4
14:20 1014 29.94 843 24.89 -10.7 12.8 45 -20.3 -4.6
14:25 1014 29.94 843 24.89 -11.3 11.6 50 -19.9 -3.7
14:30 1014 29.94 843 24.89 -11.1 12.1 50 -19.6 -3.3
14:35 1014 29.94 843 24.89 -11.5 11.4 54 -19 -2.3
14:40 1014 29.94 843 24.89 -10.7 12.7 50 -19.3 -2.8
14:45 1013 29.91 843 24.89 -10.3 13.4 50 -18.9 -2
14:50 1013 29.91 843 24.89 -11.1 12.1 53 -19 -2.2
14:55 1013 29.91 843 24.89 -10.4 13.2 49 -19.3 -2.7
15:00 1013 29.91 842 24.86 -10.9 12.5 50 -19.3 -2.8
15:05 1013 29.91 842 24.86 -11.1 12 51 -19.3 -2.8
15:10 1013 29.91 842 24.86 -11 12.2 54 -18.6 -1.5
15:15 1013 29.91 842 24.86 -11 12.3 55 -18.4 -1.1
15:20 1013 29.91 842 24.86 -11 12.2 56 -18.1 -0.5
15:25 1013 29.91 842 24.86 -11.2 11.9 58 -17.9 -0.2
15:30 1013 29.91 842 24.86 -10.5 13.1 53 -18.2 -0.8
15:35 1013 29.91 842 24.86 -10.7 12.8 55 -18 -0.4
15:40 1013 29.91 842 24.86 -10.7 12.7 55 -18.1 -0.5
15:45 1013 29.91 842 24.86 -10.2 13.6 54 -17.9 -0.2
15:50 1013 29.91 842 24.86 -10 14 54 -17.5 0.5
15:55 1013 29.91 842 24.86 -9.8 14.4 53 -17.7 0.2
16:00 1013 29.91 842 24.86 -9.7 14.5 52 -17.9 -0.2
16:05 1013 29.91 842 24.86 -10.2 13.7 54 -17.7 0.1
16:10 1012 29.88 842 24.86 -10.3 13.5 55 -17.6 0.3
16:15 1012 29.88 842 24.86 -9.9 14.1 51 -18.2 -0.7
16:20 1012 29.88 841 24.83 -9.5 15 51 -17.7 0.1
16:25 1012 29.88 841 24.83 -9.1 15.6 51 -17.6 0.4
16:30 1012 29.88 842 24.86 -8.8 16.3 49 -17.6 0.3
16:35 1013 29.91 842 24.86 -8.6 16.6 49 -17.4 0.7
16:40 1013 29.91 842 24.86 -8.3 17 48 -17.6 0.4
16:45 1013 29.91 842 24.86 -8.7 16.4 50 -17.4 0.7
16:50 1013 29.91 842 24.86 -9 15.9 50 -17.5 0.4
16:55 1013 29.91 842 24.86 -9.7 14.5 55 -17.1 1.3
17:00 1013 29.91 842 24.86 -10.2 13.7 57 -17.2 1
17:05 1013 29.91 842 24.86 -10.6 12.9 58 -17.4 0.7
17:10 1013 29.91 842 24.86 -10.7 12.7 56 -17.8 -0.1
17:15 1012 29.88 842 24.86 -10.9 12.3 60 -17.3 0.9
17:20 1013 29.91 842 24.86 -10.8 12.6 60 -17.2 1.1
17:25 1013 29.91 842 24.86 -10.3 13.4 59 -17 1.5
17:30 1012 29.88 842 24.86 -10.4 13.3 59 -17 1.5
17:35 1013 29.91 842 24.86 -10.2 13.6 58 -16.9 1.5
17:40 1012 29.88 842 24.86 -10 13.9 59 -16.7 2
17:45 1012 29.88 842 24.86 -9.9 14.2 58 -16.6 2.2
17:50 1012 29.88 842 24.86 -9.9 14.1 59 -16.5 2.3
17:55 1012 29.88 841 24.83 -10.1 13.8 61 -16.4 2.5
18:00 1012 29.88 841 24.83 -10.2 13.6 63 -16.1 3.1
18:05 1012 29.88 841 24.83 -10.3 13.4 64 -16 3.3
18:10 1012 29.88 841 24.83 -10.1 13.9 63 -15.9 3.3
18:15 1012 29.88 841 24.83 -9.8 14.3 62 -15.8 3.5
18:20 1012 29.88 841 24.83 -9.9 14.2 60 -16.2 2.9
18:25 1012 29.88 841 24.83 -9.9 14.2 61 -16.2 2.9
18:30 1012 29.88 841 24.83 -10 13.9 60 -16.4 2.4
18:35 1012 29.88 841 24.83 -10.2 13.6 61 -16.4 2.5
18:40 1012 29.88 841 24.83 -9.9 14.2 59 -16.5 2.3
18:45 1012 29.88 841 24.83 -9.7 14.5 61 -16 3.2
18:50 1012 29.88 841 24.83 -9.5 14.9 59 -16.2 2.9
18:55 1012 29.88 841 24.83 -9.4 15 61 -15.7 3.7
19:00 1012 29.88 841 24.83 -9.5 14.9 61 -15.7 3.8
19:05 1012 29.88 841 24.83 -9.7 14.6 63 -15.5 4.1
19:10 1012 29.88 841 24.83 -9.6 14.7 62 -15.6 3.9
19:15 1012 29.88 841 24.83 -9.6 14.8 64 -15.2 4.6
19:20 1011 29.85 841 24.83 -9.5 15 64 -15 5
19:25 1012 29.88 841 24.83 -9.5 14.8 65 -15 5
19:30 1012 29.88 841 24.83 -9.5 14.9 65 -15 5
19:35 1012 29.88 841 24.83 -9.7 14.6 64 -15.3 4.4
19:40 1012 29.88 841 24.83 -10.1 13.7 66 -15.4 4.3
19:45 1012 29.88 841 24.83 -10.4 13.3 67 -15.3 4.4
19:50 1012 29.88 841 24.83 -10.4 13.3 66 -15.6 3.9
19:55 1012 29.88 841 24.83 -10.4 13.2 66 -15.6 3.8
20:00 1012 29.88 841 24.83 -10.6 12.8 67 -15.7 3.7
20:05 1012 29.88 841 24.83 -10.8 12.5 65 -16.1 3
20:10 1012 29.88 842 24.86 -11.2 11.8 66 -16.3 2.6
20:15 1012 29.88 841 24.83 -11.5 11.3 68 -16.3 2.6
20:20 1012 29.88 841 24.83 -11.9 10.6 69 -16.4 2.5
20:25 1012 29.88 841 24.83 -11.9 10.6 70 -16.4 2.5
20:30 1012 29.88 841 24.83 -12 10.4 70 -16.4 2.5
20:35 1012 29.88 841 24.83 -12.1 10.2 72 -16.2 2.8
20:40 1012 29.88 841 24.83 -11.9 10.6 73 -15.9 3.5
20:45 1012 29.88 841 24.83 -11.6 11.2 73 -15.5 4.1
20:50 1012 29.88 841 24.83 -11.3 11.7 73 -15.2 4.6
20:55 1011 29.85 841 24.83 -10.9 12.3 72 -15 5.1
21:00 1011 29.85 841 24.83 -10.7 12.7 72 -14.8 5.3
21:05 1011 29.85 841 24.83 -10.5 13.2 75 -14.1 6.6
21:10 1011 29.85 841 24.83 -10.2 13.7 73 -14.1 6.7
21:15 1011 29.85 841 24.83 -9.8 14.4 77 -13.1 8.4
21:20 1011 29.85 840 24.81 -9.2 15.5 78 -12.3 9.8
21:25 1011 29.85 841 24.83 -8.9 16.1 75 -12.6 9.4
21:30 1011 29.85 840 24.81 -9 15.9 75 -12.7 9.1
21:35 1011 29.85 841 24.83 -9 15.9 72 -13.2 8.3
21:40 1011 29.85 841 24.83 -9.2 15.4 72 -13.4 7.9
21:45 1011 29.85 840 24.81 -9.4 15.1 72 -13.5 7.7
21:50 1011 29.85 840 24.81 -9.7 14.6 74 -13.5 7.6
21:55 1011 29.85 840 24.81 -9.7 14.6 73 -13.7 7.3
22:00 1011 29.85 840 24.81 -9.8 14.3 73 -13.8 7.1
22:05 1011 29.85 840 24.81 -10 14.1 71 -14.2 6.4
22:10 1011 29.85 840 24.81 -10.2 13.7 74 -13.9 7
22:15 1011 29.85 840 24.81 -10 14 73 -14 6.9
22:20 1011 29.85 840 24.81 -9.9 14.2 73 -13.9 6.9
22:25 1011 29.85 840 24.81 -9.9 14.1 72 -14.1 6.6
22:30 1011 29.85 840 24.81 -10.2 13.7 73 -14.1 6.6
22:35 1011 29.85 840 24.81 -10.2 13.7 74 -14 6.7
22:40 1011 29.85 840 24.81 -10.1 13.7 73 -14.1 6.6
22:45 1011 29.85 840 24.81 -10.1 13.8 74 -13.9 7
22:50 1011 29.85 840 24.81 -10.2 13.7 75 -13.9 7
22:55 1011 29.85 840 24.81 -10 14.1 72 -14.2 6.5
23:00 1011 29.85 840 24.81 -10.4 13.3 74 -14.1 6.6
23:05 1011 29.85 840 24.81 -10.5 13.1 75 -14.2 6.4
23:10 1011 29.85 840 24.81 -10.1 13.8 79 -13.2 8.3
23:15 1011 29.85 840 24.81 -9.5 14.8 80 -12.4 9.7
23:20 1011 29.85 840 24.81 -8.7 16.3 70 -13.2 8.2
23:25 1011 29.85 840 24.81 -9 15.8 75 -12.6 9.4
23:30 1011 29.85 840 24.81 -9.2 15.4 75 -12.8 8.9
23:35 1011 29.85 840 24.81 -8.5 16.8 91 -9.7 14.6
23:40 1011 29.85 840 24.81 -7 19.4 77 -10.3 13.4
23:45 1011 29.85 840 24.81 -6.8 19.8 81 -9.6 14.8
23:50 1011 29.85 840 24.81 -6.3 20.7 88 -7.9 17.8
23:55 1011 29.85 840 24.81 -5.4 22.3 80 -8.4 16.9
24:00 1011 29.85 840 24.81 -4.3 24.3 84 -6.6 20.2